Home > Products > Valid Products > TAF

000
FTUS43 KGRB 010500
TAFGRB
TAF
KGRB 010520Z 0106/0206 04018G29KT P6SM -SHSN OVC025
      TEMPO 0110/0114 2SM -SN
     FM011400 03016G27KT 6SM -SHSN OVC025
      TEMPO 0114/0118 3SM -SN
     FM012100 03017G28KT P6SM -SHSN SCT030 BKN060
     FM020100 02015G23KT P6SM SCT035=



000
FTUS43 KGRB 010500
TAFGRB
TAF
KGRB 010520Z 0106/0206 04018G29KT P6SM -SHSN OVC025
      TEMPO 0110/0114 2SM -SN
     FM011400 03016G27KT 6SM -SHSN OVC025
      TEMPO 0114/0118 3SM -SN
     FM012100 03017G28KT P6SM -SHSN SCT030 BKN060
     FM020100 02015G23KT P6SM SCT035=



000
FTUS43 KGRB 010300 AAB
TAFGRB
TAF AMD
KGRB 010305Z 0103/0124 03017G24KT P6SM OVC025
     FM010700 03015G25KT P6SM -SHSN OVC020
      TEMPO 0109/0113 3SM -SN
     FM011300 03014G22KT P6SM -SHSN OVC025
     FM012100 03017G28KT P6SM -SHSN SCT030 BKN060=



000
FTUS43 KGRB 010300 AAB
TAFGRB
TAF AMD
KGRB 010305Z 0103/0124 03017G24KT P6SM OVC025
     FM010700 03015G25KT P6SM -SHSN OVC020
      TEMPO 0109/0113 3SM -SN
     FM011300 03014G22KT P6SM -SHSN OVC025
     FM012100 03017G28KT P6SM -SHSN SCT030 BKN060=



000
FTUS43 KGRB 010300 AAB
TAFGRB
TAF AMD
KGRB 010305Z 0103/0124 03017G24KT P6SM OVC025
     FM010700 03015G25KT P6SM -SHSN OVC020
      TEMPO 0109/0113 3SM -SN
     FM011300 03014G22KT P6SM -SHSN OVC025
     FM012100 03017G28KT P6SM -SHSN SCT030 BKN060=



000
FTUS43 KGRB 010300 AAB
TAFGRB
TAF AMD
KGRB 010305Z 0103/0124 03017G24KT P6SM OVC025
     FM010700 03015G25KT P6SM -SHSN OVC020
      TEMPO 0109/0113 3SM -SN
     FM011300 03014G22KT P6SM -SHSN OVC025
     FM012100 03017G28KT P6SM -SHSN SCT030 BKN060=



000
FTUS43 KGRB 010200 AAA
TAFGRB
TAF AMD
KGRB 010208Z 0102/0124 03015G24KT P6SM OVC035
     FM010700 03015G25KT P6SM -SHSN OVC020
      TEMPO 0109/0113 3SM -SN
     FM011300 03014G22KT P6SM -SHSN OVC025
     FM012100 03017G28KT P6SM -SHSN SCT030 BKN060=



000
FTUS43 KGRB 010200 AAA
TAFGRB
TAF AMD
KGRB 010208Z 0102/0124 03015G24KT P6SM OVC035
     FM010700 03015G25KT P6SM -SHSN OVC020
      TEMPO 0109/0113 3SM -SN
     FM011300 03014G22KT P6SM -SHSN OVC025
     FM012100 03017G28KT P6SM -SHSN SCT030 BKN060=



000
FTUS43 KGRB 010200 AAA
TAFGRB
TAF AMD
KGRB 010208Z 0102/0124 03015G24KT P6SM OVC035
     FM010700 03015G25KT P6SM -SHSN OVC020
      TEMPO 0109/0113 3SM -SN
     FM011300 03014G22KT P6SM -SHSN OVC025
     FM012100 03017G28KT P6SM -SHSN SCT030 BKN060=



000
FTUS43 KGRB 010200 AAA
TAFGRB
TAF AMD
KGRB 010208Z 0102/0124 03015G24KT P6SM OVC035
     FM010700 03015G25KT P6SM -SHSN OVC020
      TEMPO 0109/0113 3SM -SN
     FM011300 03014G22KT P6SM -SHSN OVC025
     FM012100 03017G28KT P6SM -SHSN SCT030 BKN060=



000
FTUS43 KGRB 312300
TAFGRB
TAF
KGRB 312325Z 0100/0124 02005KT P6SM BKN028
     FM010300 03012G20KT P6SM BKN035
     FM010700 03015G25KT P6SM -SHSN OVC020
      TEMPO 0109/0113 3SM -SN
     FM011300 03014G22KT P6SM -SHSN OVC025
     FM012100 03017G28KT P6SM -SHSN SCT030 BKN060=



000
FTUS43 KGRB 312300
TAFGRB
TAF
KGRB 312325Z 0100/0124 02005KT P6SM BKN028
     FM010300 03012G20KT P6SM BKN035
     FM010700 03015G25KT P6SM -SHSN OVC020
      TEMPO 0109/0113 3SM -SN
     FM011300 03014G22KT P6SM -SHSN OVC025
     FM012100 03017G28KT P6SM -SHSN SCT030 BKN060=



000
FTUS43 KGRB 311700
TAFGRB
TAF
KGRB 311730Z 3118/0118 32008G13KT P6SM BKN026
     FM312200 02008KT P6SM BKN028
     FM010300 03014G20KT P6SM BKN035
     FM011000 03016G25KT P6SM SCT035 BKN060
      TEMPO 0111/0115 -SN BKN035=



000
FTUS43 KGRB 311100
TAFGRB
TAF
KGRB 311137Z 3112/0112 21006KT P6SM SCT025 BKN040
      TEMPO 3112/3115 BKN025
     FM311500 27005KT P6SM BKN030 OVC080
     FM311800 32009KT P6SM -SHSN BKN035 OVC080
     FM010200 02012G20KT P6SM SCT025 BKN035
     FM011000 02015G25KT P6SM -SN BKN025=



000
FTUS43 KGRB 311000 AAA
TAFGRB
TAF AMD
KGRB 311011Z 3110/0106 21006KT P6SM OVC028
     FM311500 27005KT P6SM BKN035 OVC080
     FM312100 36009KT P6SM -SHSN BKN035 OVC080
     FM010200 03012G20KT P6SM SCT025 BKN035
      TEMPO 0102/0106 5SM -SHSN BKN025=



000
FTUS43 KGRB 311000 AAA
TAFGRB
TAF AMD
KGRB 311011Z 3110/0106 21006KT P6SM OVC028
     FM311500 27005KT P6SM BKN035 OVC080
     FM312100 36009KT P6SM -SHSN BKN035 OVC080
     FM010200 03012G20KT P6SM SCT025 BKN035
      TEMPO 0102/0106 5SM -SHSN BKN025=



000
FTUS43 KGRB 310500
TAFGRB
TAF
KGRB 310525Z 3106/0106 21003KT P6SM SCT070 OVC090
     FM310800 21004KT P6SM OVC035
     FM311500 27005KT P6SM BKN035 OVC080
     FM312100 36009KT P6SM -SHSN BKN035 OVC080
     FM010200 03012G20KT P6SM SCT025 BKN035
      TEMPO 0102/0106 5SM -SHSN BKN025=



000
FTUS43 KGRB 310500
TAFGRB
TAF
KGRB 310525Z 3106/0106 21003KT P6SM SCT070 OVC090
     FM310800 21004KT P6SM OVC035
     FM311500 27005KT P6SM BKN035 OVC080
     FM312100 36009KT P6SM -SHSN BKN035 OVC080
     FM010200 03012G20KT P6SM SCT025 BKN035
      TEMPO 0102/0106 5SM -SHSN BKN025=



000
FTUS43 KGRB 302300
TAFGRB
TAF
KGRB 302333Z 3100/3124 22004KT P6SM SCT070 OVC090
     FM310800 22005KT P6SM SCT035 OVC060
      TEMPO 3109/3113 -SHSN BKN035
     FM311500 27005KT P6SM BKN035 OVC080
     FM312100 36009KT P6SM -SHSN BKN035 OVC080=



000
FTUS43 KGRB 302300
TAFGRB
TAF
KGRB 302333Z 3100/3124 22004KT P6SM SCT070 OVC090
     FM310800 22005KT P6SM SCT035 OVC060
      TEMPO 3109/3113 -SHSN BKN035
     FM311500 27005KT P6SM BKN035 OVC080
     FM312100 36009KT P6SM -SHSN BKN035 OVC080=



000
FTUS43 KGRB 301700
TAFGRB
TAF
KGRB 301721Z 3018/3118 27006KT P6SM SCT080 BKN110
     FM310000 21004KT P6SM SCT060 OVC100
     FM310800 22005KT P6SM SCT025 OVC060
      TEMPO 3109/3113 -SN BKN025
     FM311300 25005KT P6SM BKN035 OVC080
     FM311600 33007KT P6SM BKN035 OVC080=



000
FTUS43 KGRB 301700
TAFGRB
TAF
KGRB 301721Z 3018/3118 27006KT P6SM SCT080 BKN110
     FM310000 21004KT P6SM SCT060 OVC100
     FM310800 22005KT P6SM SCT025 OVC060
      TEMPO 3109/3113 -SN BKN025
     FM311300 25005KT P6SM BKN035 OVC080
     FM311600 33007KT P6SM BKN035 OVC080=



000
FTUS43 KGRB 301100
TAFGRB
TAF
KGRB 301139Z 3012/3112 33008KT P6SM SCT030 BKN035
     FM301500 32006KT P6SM SCT030 BKN120
     FM310000 21004KT P6SM BKN090=



000
FTUS43 KGRB 301100
TAFGRB
TAF
KGRB 301139Z 3012/3112 33008KT P6SM SCT030 BKN035
     FM301500 32006KT P6SM SCT030 BKN120
     FM310000 21004KT P6SM BKN090=



000
FTUS43 KGRB 300900 AAA
TAFGRB
TAF AMD
KGRB 300933Z 3010/3106 33008KT P6SM SCT030 BKN040
     FM301700 32006KT P6SM SCT030 BKN150
     FM310000 21004KT P6SM BKN090=



000
FTUS43 KGRB 300900 AAA
TAFGRB
TAF AMD
KGRB 300933Z 3010/3106 33008KT P6SM SCT030 BKN040
     FM301700 32006KT P6SM SCT030 BKN150
     FM310000 21004KT P6SM BKN090=



000
FTUS43 KGRB 300500
TAFGRB
TAF
KGRB 300520Z 3006/3106 34011G21KT P6SM -SN SCT028 BKN040
      TEMPO 3006/3009 SCT040
     FM300900 33011KT P6SM SCT035 SCT050
     FM301700 32006KT P6SM SCT030 BKN150
     FM310000 21004KT P6SM BKN090=



000
FTUS43 KGRB 300500
TAFGRB
TAF
KGRB 300520Z 3006/3106 34011G21KT P6SM -SN SCT028 BKN040
      TEMPO 3006/3009 SCT040
     FM300900 33011KT P6SM SCT035 SCT050
     FM301700 32006KT P6SM SCT030 BKN150
     FM310000 21004KT P6SM BKN090=



000
FTUS43 KGRB 300400 AAA
TAFGRB
TAF AMD
KGRB 300430Z 3005/3024 34011G21KT P6SM -SN SCT028 OVC040
      TEMPO 3006/3008 SCT040
     FM300800 33011KT P6SM SCT025 SCT035
     FM301700 32006KT P6SM SCT030 BKN150=



000
FTUS43 KGRB 292300
TAFGRB
TAF
KGRB 292320Z 3000/3024 33018G27KT P6SM -SN SCT028 OVC040
     FM300900 33011KT P6SM SCT025 SCT035
     FM301700 32006KT P6SM SCT030 BKN150=



000
FTUS43 KGRB 292300
TAFGRB
TAF
KGRB 292320Z 3000/3024 33018G27KT P6SM -SN SCT028 OVC040
     FM300900 33011KT P6SM SCT025 SCT035
     FM301700 32006KT P6SM SCT030 BKN150=



000
FTUS43 KGRB 291900 AAA
TAFGRB
TAF AMD
KGRB 291958Z 2920/3018 32012G22KT P6SM OVC035
     FM300000 33015G22KT P6SM OVC035
     FM300300 33014KT P6SM SCT030
     FM300900 33009KT P6SM FEW025 SCT250
     FM301500 32006KT P6SM FEW025 SCT090 BKN200=



000
FTUS43 KGRB 291900 AAA
TAFGRB
TAF AMD
KGRB 291958Z 2920/3018 32012G22KT P6SM OVC035
     FM300000 33015G22KT P6SM OVC035
     FM300300 33014KT P6SM SCT030
     FM300900 33009KT P6SM FEW025 SCT250
     FM301500 32006KT P6SM FEW025 SCT090 BKN200=



000
FTUS43 KGRB 291700
TAFGRB
TAF
KGRB 291720Z 2918/3018 33017G28KT P6SM OVC022
     FM300000 33016G23KT P6SM OVC025
     FM300300 33014KT P6SM SCT025
     FM300900 33009KT P6SM FEW020 SCT250
     FM301500 32006KT P6SM FEW020 SCT090 BKN200=



000
FTUS43 KGRB 291700
TAFGRB
TAF
KGRB 291720Z 2918/3018 33017G28KT P6SM OVC022
     FM300000 33016G23KT P6SM OVC025
     FM300300 33014KT P6SM SCT025
     FM300900 33009KT P6SM FEW020 SCT250
     FM301500 32006KT P6SM FEW020 SCT090 BKN200=



000
FTUS43 KGRB 291200 AAA
TAFGRB
TAF AMD
KGRB 291254Z 2913/3012 32011KT 5SM BR SCT012 OVC030
      TEMPO 2913/2914 4SM -FZDZSN SCT004 OVC012
     FM291400 32011G15KT 6SM BR FEW010 OVC015
     FM291700 32016G26KT P6SM BKN025 BKN040
     FM300000 32015G24KT P6SM SCT025 BKN050
     FM300600 32012G18KT P6SM SCT100=



000
FTUS43 KGRB 291200 AAA
TAFGRB
TAF AMD
KGRB 291254Z 2913/3012 32011KT 5SM BR SCT012 OVC030
      TEMPO 2913/2914 4SM -FZDZSN SCT004 OVC012
     FM291400 32011G15KT 6SM BR FEW010 OVC015
     FM291700 32016G26KT P6SM BKN025 BKN040
     FM300000 32015G24KT P6SM SCT025 BKN050
     FM300600 32012G18KT P6SM SCT100=



000
FTUS43 KGRB 291100
TAFGRB
TAF
KGRB 291138Z 2912/3012 32007KT 5SM -SN BR SCT008 OVC015
      TEMPO 2912/2915 2SM -FZDZPL SCT004 OVC008
     FM291500 32008G15KT 5SM -SN BR FEW005 OVC010
     FM291700 32016G26KT P6SM -SN BKN025 BKN040
     FM300000 32015G24KT P6SM SCT025 BKN050
     FM300600 32012G18KT P6SM SCT100=



000
FTUS43 KGRB 291100
TAFGRB
TAF
KGRB 291138Z 2912/3012 32007KT 5SM -SN BR SCT008 OVC015
      TEMPO 2912/2915 2SM -FZDZPL SCT004 OVC008
     FM291500 32008G15KT 5SM -SN BR FEW005 OVC010
     FM291700 32016G26KT P6SM -SN BKN025 BKN040
     FM300000 32015G24KT P6SM SCT025 BKN050
     FM300600 32012G18KT P6SM SCT100=



    US Dept of Commerce
    National Oceanic and Atmospheric Administration
    National Weather Service
    1325 East West Highway
    Silver Spring, MD 20910
    Page Author: NWS Internet Services Team
Disclaimer
Information Quality
Credits
Glossary
Privacy Policy
Freedom of Information Act (FOIA)
About Us
Career Opportunities